createdAt,value
2023-04-17T16:01:21.158Z,17.63
2023-04-17T16:06:27.667Z,18.13
2023-04-17T16:11:33.247Z,18.25
2023-04-17T16:16:41.363Z,18.25
2023-04-17T16:21:46.609Z,18.17
2023-04-17T16:26:57.468Z,17.90
2023-04-17T16:32:05.668Z,17.65
2023-04-17T16:37:11.184Z,17.40
2023-04-17T16:42:16.459Z,17.22
2023-04-17T16:47:24.578Z,17.16
2023-04-17T16:52:30.026Z,17.14
2023-04-17T16:57:38.328Z,17.30
2023-04-17T17:02:46.503Z,17.46
2023-04-17T17:07:51.950Z,17.51
2023-04-17T17:12:57.123Z,17.51
2023-04-17T17:18:05.079Z,17.52
2023-04-17T17:23:10.626Z,17.55
2023-04-17T17:28:15.987Z,17.60
2023-04-17T17:33:24.070Z,17.65
2023-04-17T17:38:32.832Z,17.58
2023-04-17T17:43:38.107Z,17.46
2023-04-17T17:48:46.263Z,17.37
2023-04-17T17:53:51.682Z,17.29
2023-04-17T17:58:56.988Z,17.29
2023-04-17T18:04:05.160Z,17.25
2023-04-17T18:09:10.647Z,17.19
2023-04-17T18:14:16.042Z,17.15
2023-04-17T18:19:24.124Z,17.09
2023-04-17T18:24:29.376Z,16.96
2023-04-17T18:29:34.933Z,16.79
2023-04-17T18:34:44.052Z,16.58
2023-04-17T18:39:49.409Z,16.33
2023-04-17T18:44:54.987Z,16.14
2023-04-17T18:50:03.979Z,15.97
2023-04-17T18:55:10.631Z,15.77
2023-04-17T19:00:16.930Z,15.61
2023-04-17T19:05:26.142Z,15.47
2023-04-17T19:10:31.487Z,15.32
2023-04-17T19:15:36.837Z,15.19
2023-04-17T19:20:44.844Z,15.08
2023-04-17T19:25:55.339Z,14.96
2023-04-17T19:31:01.103Z,14.83
2023-04-17T19:36:09.158Z,14.71
2023-04-17T19:41:17.669Z,14.56
2023-04-17T19:46:23.755Z,14.40
2023-04-17T19:51:31.716Z,14.29
2023-04-17T19:56:37.184Z,14.16
2023-04-17T20:01:43.753Z,14.03
2023-04-17T20:06:52.018Z,13.93
2023-04-17T20:11:57.461Z,13.80
2023-04-17T20:17:02.859Z,13.68
2023-04-17T20:22:11.556Z,13.59
2023-04-17T20:27:17.005Z,13.49
2023-04-17T20:32:23.390Z,13.45
2023-04-17T20:37:31.640Z,13.46
2023-04-17T20:42:36.957Z,13.47
2023-04-17T20:47:55.321Z,13.49
2023-04-17T20:53:04.811Z,13.59
2023-04-17T20:58:10.159Z,13.69
2023-04-17T21:03:15.608Z,13.77
2023-04-17T21:08:23.792Z,13.89
2023-04-17T21:13:29.229Z,13.93
2023-04-17T21:18:34.505Z,13.94
2023-04-17T21:23:42.389Z,13.95
2023-04-17T21:28:47.764Z,13.96
2023-04-17T21:33:53.468Z,13.93
2023-04-17T21:39:01.236Z,13.85
2023-04-17T21:44:06.536Z,13.76
2023-04-17T21:49:11.945Z,13.66
2023-04-17T21:54:19.762Z,13.63
2023-04-17T21:59:25.142Z,13.60
2023-04-17T22:04:30.466Z,13.59
2023-04-17T22:09:38.312Z,13.57
2023-04-17T22:14:43.608Z,13.51
2023-04-17T22:19:48.862Z,13.48
2023-04-17T22:24:56.574Z,13.43
2023-04-17T22:30:01.974Z,13.35
2023-04-17T22:35:08.240Z,13.26
2023-04-17T22:40:16.983Z,13.18
